createdAt,value
2023-01-30T00:02:04.329Z,14.50
2023-01-30T00:04:37.016Z,14.67
2023-01-30T00:07:07.151Z,12.50
2023-01-30T00:09:37.090Z,14.17
2023-01-30T00:12:07.685Z,14.37
2023-01-30T00:14:37.683Z,13.60
2023-01-30T00:17:07.386Z,13.53
2023-01-30T00:19:40.028Z,12.57
2023-01-30T00:22:09.871Z,12.83
2023-01-30T00:24:39.648Z,13.57
2023-01-30T00:27:09.456Z,8.73
2023-01-30T00:29:39.163Z,14.40
2023-01-30T00:32:09.114Z,11.80
2023-01-30T00:34:41.466Z,12.37
2023-01-30T00:37:11.302Z,11.67
2023-01-30T00:39:41.166Z,10.23
2023-01-30T00:42:24.883Z,12.83
2023-01-30T00:45:06.962Z,9.57
2023-01-30T00:47:36.793Z,12.30
2023-01-30T00:50:09.994Z,13.00
2023-01-30T00:52:39.884Z,12.87
2023-01-30T00:55:11.397Z,15.37
2023-01-30T00:57:41.127Z,13.30
2023-01-30T01:00:12.942Z,13.90
2023-01-30T01:02:42.760Z,13.27
2023-01-30T01:05:15.502Z,14.00
2023-01-30T01:07:45.262Z,12.50
2023-01-30T01:10:16.725Z,11.37
2023-01-30T01:12:46.761Z,12.57
2023-01-30T01:15:17.740Z,14.07
2023-01-30T01:17:47.641Z,10.40
2023-01-30T01:20:20.621Z,11.97
2023-01-30T01:22:52.149Z,12.60
2023-01-30T01:25:22.018Z,10.20
2023-01-30T01:27:52.592Z,11.87
2023-01-30T01:30:22.786Z,13.00
2023-01-30T01:32:52.606Z,13.53
2023-01-30T01:35:25.040Z,12.30
2023-01-30T01:37:56.819Z,11.40
2023-01-30T01:40:39.284Z,8.67
2023-01-30T01:43:18.836Z,13.90
2023-01-30T01:45:51.719Z,13.30
2023-01-30T01:48:28.385Z,11.37
2023-01-30T01:51:05.259Z,12.87
2023-01-30T01:53:37.827Z,12.37
2023-01-30T01:56:10.420Z,11.60
2023-01-30T01:58:44.010Z,7.83
2023-01-30T02:01:13.998Z,13.17
2023-01-30T02:03:48.643Z,12.57
2023-01-30T02:06:21.904Z,13.23
2023-01-30T02:08:56.504Z,12.03
2023-01-30T02:11:33.206Z,12.00
2023-01-30T02:14:04.486Z,12.13
2023-01-30T02:16:34.656Z,11.90
2023-01-30T02:19:04.641Z,13.50
2023-01-30T02:22:11.922Z,12.17
2023-01-30T02:25:08.960Z,12.23
2023-01-30T02:28:06.010Z,12.90
2023-01-30T02:31:03.954Z,9.00
2023-01-30T02:33:42.560Z,12.13
2023-01-30T02:36:24.231Z,12.80
2023-01-30T02:39:04.660Z,12.93
2023-01-30T02:41:42.171Z,11.53
2023-01-30T02:44:19.335Z,10.87
2023-01-30T02:46:57.907Z,11.43
2023-01-30T02:49:34.923Z,12.90
2023-01-30T02:52:07.005Z,11.20
2023-01-30T02:54:36.800Z,11.40
2023-01-30T02:57:06.699Z,10.67
2023-01-30T02:59:41.076Z,11.77
2023-01-30T03:02:40.836Z,9.37
2023-01-30T03:05:36.458Z,7.80
2023-01-30T03:08:21.003Z,13.10
2023-01-30T03:10:57.514Z,12.13
2023-01-30T03:13:35.504Z,10.93
2023-01-30T03:16:10.856Z,9.97
2023-01-30T03:18:43.927Z,12.07
2023-01-30T03:21:15.707Z,9.23
2023-01-30T03:23:48.434Z,11.73
2023-01-30T03:26:23.152Z,11.60
2023-01-30T03:28:54.105Z,10.20
2023-01-30T03:31:23.918Z,10.80
2023-01-30T03:33:56.464Z,11.80
2023-01-30T03:36:27.043Z,11.77
2023-01-30T03:38:56.980Z,13.00
2023-01-30T03:41:26.941Z,9.77
2023-01-30T03:43:56.801Z,12.10
2023-01-30T03:46:26.912Z,12.37
2023-01-30T03:48:59.359Z,10.63
2023-01-30T03:51:29.099Z,13.27
2023-01-30T03:53:58.907Z,10.67
2023-01-30T03:56:28.778Z,11.60
2023-01-30T03:58:58.575Z,9.87
2023-01-30T04:01:28.540Z,12.03
2023-01-30T04:04:01.072Z,10.73
2023-01-30T04:06:30.844Z,12.10
2023-01-30T04:09:00.724Z,10.87
2023-01-30T04:11:30.472Z,11.57
2023-01-30T04:14:00.204Z,10.73
2023-01-30T04:16:30.827Z,10.60
2023-01-30T04:19:03.296Z,10.87
2023-01-30T04:21:33.253Z,12.30
2023-01-30T04:24:03.028Z,10.80
2023-01-30T04:26:32.820Z,10.53
2023-01-30T04:29:02.877Z,11.60
2023-01-30T04:31:32.644Z,12.60
2023-01-30T04:34:05.078Z,11.20
2023-01-30T04:36:34.819Z,9.17
2023-01-30T04:39:04.585Z,9.23
2023-01-30T04:41:34.605Z,10.97
2023-01-30T04:44:04.566Z,11.17
2023-01-30T04:46:34.476Z,9.93
2023-01-30T04:49:06.855Z,8.63
2023-01-30T04:51:36.617Z,9.27
2023-01-30T04:54:06.803Z,8.97
2023-01-30T04:56:36.730Z,10.47
2023-01-30T04:59:06.672Z,10.77
2023-01-30T05:01:38.643Z,8.90
2023-01-30T05:04:11.309Z,11.10
2023-01-30T05:06:41.031Z,9.77
2023-01-30T05:09:12.824Z,9.73
2023-01-30T05:11:42.718Z,8.90
2023-01-30T05:14:12.481Z,9.93
2023-01-30T05:16:42.518Z,9.00
2023-01-30T05:19:16.156Z,8.43
2023-01-30T05:21:45.943Z,11.07
2023-01-30T05:24:15.777Z,10.00
2023-01-30T05:26:45.644Z,7.63
2023-01-30T05:29:15.594Z,9.93
2023-01-30T05:31:45.569Z,8.67
2023-01-30T05:34:17.894Z,8.37
2023-01-30T05:36:47.772Z,9.23
2023-01-30T05:39:17.858Z,9.20
2023-01-30T05:41:47.628Z,9.23
2023-01-30T05:44:17.483Z,9.47
2023-01-30T05:46:47.312Z,9.93
2023-01-30T05:49:20.101Z,9.00
2023-01-30T05:51:51.544Z,8.90
2023-01-30T05:54:21.377Z,7.50
2023-01-30T05:56:52.733Z,6.93
2023-01-30T05:59:22.609Z,9.30
2023-01-30T06:01:52.580Z,9.30
2023-01-30T06:04:25.384Z,10.03
2023-01-30T06:06:55.351Z,6.73
2023-01-30T06:09:25.054Z,8.30
2023-01-30T06:11:55.801Z,8.97
2023-01-30T06:14:25.703Z,8.03
2023-01-30T06:16:55.705Z,8.70
2023-01-30T06:19:28.298Z,5.10
2023-01-30T06:21:58.149Z,8.17
2023-01-30T06:24:27.919Z,9.97
2023-01-30T06:26:57.713Z,10.07
2023-01-30T06:29:27.550Z,10.03
2023-01-30T06:31:57.284Z,9.33
2023-01-30T06:34:29.718Z,10.93
2023-01-30T06:36:59.490Z,8.97
2023-01-30T06:39:29.358Z,9.27
2023-01-30T06:41:59.111Z,5.57
2023-01-30T06:44:28.891Z,9.70
2023-01-30T06:46:58.745Z,10.20
2023-01-30T06:49:31.095Z,9.03
2023-01-30T06:52:00.949Z,9.63
2023-01-30T06:54:30.692Z,10.80
2023-01-30T06:57:00.590Z,9.90
2023-01-30T06:59:30.410Z,9.70
2023-01-30T07:02:00.333Z,8.27
2023-01-30T07:04:32.669Z,8.67
2023-01-30T07:07:02.414Z,6.03
2023-01-30T07:09:32.231Z,9.80
2023-01-30T07:12:01.954Z,8.57
2023-01-30T07:14:31.771Z,10.10
2023-01-30T07:17:01.634Z,6.20
2023-01-30T07:19:36.413Z,8.60
2023-01-30T07:22:06.329Z,8.70
2023-01-30T07:24:36.141Z,8.30
2023-01-30T07:27:06.044Z,8.03
2023-01-30T07:29:35.862Z,7.17
2023-01-30T07:32:06.168Z,8.10
2023-01-30T07:34:38.510Z,7.23
2023-01-30T07:37:08.468Z,5.43
2023-01-30T07:39:38.191Z,4.07
2023-01-30T07:42:08.422Z,5.40
2023-01-30T07:44:38.314Z,4.70
2023-01-30T07:47:08.484Z,5.50
2023-01-30T07:49:40.925Z,5.40
2023-01-30T07:52:10.813Z,6.80
2023-01-30T07:54:40.673Z,3.53
2023-01-30T07:57:10.448Z,4.97
2023-01-30T07:59:40.425Z,5.60
2023-01-30T08:02:12.100Z,4.07
2023-01-30T08:04:44.623Z,4.37
2023-01-30T08:07:14.631Z,3.77
2023-01-30T08:09:44.820Z,4.57
2023-01-30T08:12:14.808Z,3.87
2023-01-30T08:14:44.715Z,4.10
2023-01-30T08:17:16.335Z,3.90
2023-01-30T08:19:48.699Z,4.27
2023-01-30T08:22:18.579Z,3.53
2023-01-30T08:24:49.004Z,3.87
2023-01-30T08:27:19.028Z,3.10
2023-01-30T08:29:48.897Z,2.33
2023-01-30T08:32:18.605Z,3.20
2023-01-30T08:34:50.872Z,2.50
2023-01-30T08:37:20.692Z,3.00
2023-01-30T08:39:57.771Z,2.63
2023-01-30T08:42:27.638Z,2.03
2023-01-30T08:44:59.633Z,1.93
2023-01-30T08:47:29.429Z,2.83
2023-01-30T08:50:01.951Z,2.30
2023-01-30T08:52:31.743Z,3.13
2023-01-30T08:55:03.006Z,1.40
2023-01-30T08:57:33.571Z,2.37
2023-01-30T09:00:03.343Z,2.07
2023-01-30T09:02:33.171Z,1.97
2023-01-30T09:05:05.785Z,2.90
2023-01-30T09:07:36.007Z,2.27
2023-01-30T09:10:09.067Z,2.97
2023-01-30T09:12:38.897Z,2.70
2023-01-30T09:15:12.792Z,2.60
2023-01-30T09:17:44.801Z,2.50
2023-01-30T09:20:19.099Z,1.77
2023-01-30T09:22:49.677Z,2.90
2023-01-30T09:25:19.931Z,2.60
2023-01-30T09:27:51.952Z,2.70
2023-01-30T09:30:22.806Z,2.40
2023-01-30T09:33:01.511Z,2.00
2023-01-30T09:35:34.482Z,2.23
2023-01-30T09:38:05.819Z,1.40
2023-01-30T09:40:41.680Z,2.50
2023-01-30T09:43:31.796Z,1.73
2023-01-30T09:46:10.133Z,1.90
2023-01-30T09:48:49.713Z,2.60
2023-01-30T09:51:49.303Z,1.60
2023-01-30T09:54:24.778Z,1.40
2023-01-30T09:57:04.384Z,1.80
2023-01-30T09:59:42.252Z,2.10
2023-01-30T10:02:27.747Z,2.10
2023-01-30T10:05:02.010Z,2.60
2023-01-30T10:07:47.177Z,2.50
2023-01-30T10:10:26.585Z,1.70
2023-01-30T10:13:06.987Z,2.07
2023-01-30T10:15:50.884Z,0.90
2023-01-30T10:18:41.694Z,2.33
2023-01-30T10:21:23.206Z,2.77
2023-01-30T10:24:07.876Z,2.57
2023-01-30T10:26:37.829Z,1.90
2023-01-30T10:29:11.043Z,2.27
2023-01-30T10:31:52.507Z,2.17
2023-01-30T10:34:26.189Z,1.67
2023-01-30T10:37:01.441Z,2.20
2023-01-30T10:39:49.714Z,1.63
2023-01-30T10:42:30.621Z,2.03
2023-01-30T10:45:09.723Z,1.57
2023-01-30T10:48:02.099Z,2.37
2023-01-30T10:50:53.285Z,2.10
2023-01-30T10:53:27.246Z,1.57
2023-01-30T10:56:06.947Z,1.17
2023-01-30T10:58:45.099Z,1.80
2023-01-30T11:01:21.345Z,1.97
2023-01-30T11:03:54.699Z,1.57
2023-01-30T11:06:27.279Z,2.17
2023-01-30T11:08:59.529Z,2.00
2023-01-30T11:11:36.862Z,2.17
2023-01-30T11:14:08.998Z,1.37
2023-01-30T11:16:46.959Z,2.30
2023-01-30T11:19:21.644Z,2.10
2023-01-30T11:21:54.283Z,1.90
2023-01-30T11:24:26.683Z,1.93
2023-01-30T11:27:12.017Z,1.63
2023-01-30T11:29:42.886Z,2.20
2023-01-30T11:32:18.013Z,2.40
2023-01-30T11:35:04.050Z,2.40
2023-01-30T11:37:36.195Z,2.10
2023-01-30T11:40:21.698Z,1.30
2023-01-30T11:42:56.582Z,2.30
2023-01-30T11:45:30.695Z,2.20
2023-01-30T11:48:05.001Z,1.80
2023-01-30T11:50:49.240Z,1.70
2023-01-30T11:53:33.308Z,3.03
2023-01-30T11:56:09.100Z,0.97
2023-01-30T11:58:46.653Z,2.23
2023-01-30T12:01:17.969Z,2.20
2023-01-30T12:03:51.862Z,2.03
2023-01-30T12:06:27.089Z,2.03
2023-01-30T12:08:57.952Z,1.93
2023-01-30T12:11:31.107Z,1.87
2023-01-30T12:14:16.003Z,2.27
2023-01-30T12:17:01.852Z,2.87
2023-01-30T12:19:42.844Z,3.03
2023-01-30T12:22:23.936Z,2.50
2023-01-30T12:25:01.850Z,2.33
2023-01-30T12:27:48.482Z,2.67
2023-01-30T12:30:32.391Z,2.73
2023-01-30T12:33:04.616Z,1.60
2023-01-30T12:35:50.036Z,2.63
2023-01-30T12:38:34.475Z,2.33
2023-01-30T12:41:15.540Z,2.67
2023-01-30T12:44:01.577Z,0.70
2023-01-30T12:46:47.574Z,1.63
2023-01-30T12:49:40.947Z,2.20
2023-01-30T12:52:34.036Z,1.50
2023-01-30T12:55:17.899Z,2.10
2023-01-30T12:57:56.911Z,2.20
2023-01-30T13:00:38.602Z,2.37
2023-01-30T13:03:33.413Z,3.03
2023-01-30T13:06:13.833Z,2.43
2023-01-30T13:08:57.221Z,2.50
2023-01-30T13:11:48.325Z,2.50
2023-01-30T13:14:28.884Z,2.43
2023-01-30T13:17:18.451Z,2.57
2023-01-30T13:19:59.456Z,2.30
2023-01-30T13:22:37.366Z,2.50
2023-01-30T13:25:18.559Z,2.17
2023-01-30T13:27:56.461Z,2.43
2023-01-30T13:30:28.762Z,2.43
2023-01-30T13:33:01.584Z,2.40
2023-01-30T13:35:39.336Z,2.10
2023-01-30T13:38:11.738Z,2.73
2023-01-30T13:40:45.290Z,2.40
2023-01-30T13:43:23.230Z,3.10
2023-01-30T13:45:54.818Z,2.17
2023-01-30T13:48:46.277Z,2.40
2023-01-30T13:51:35.651Z,2.47
2023-01-30T13:54:15.674Z,2.97
2023-01-30T13:56:50.775Z,3.07
2023-01-30T13:59:30.606Z,1.83
2023-01-30T14:02:22.094Z,3.27
2023-01-30T14:04:55.881Z,2.20
2023-01-30T14:07:31.481Z,2.27
2023-01-30T14:10:20.472Z,2.53
2023-01-30T14:12:53.140Z,2.43
2023-01-30T14:15:29.125Z,2.33
2023-01-30T14:18:06.280Z,1.97
2023-01-30T14:20:40.669Z,2.53
2023-01-30T14:23:24.883Z,1.33
2023-01-30T14:25:56.737Z,1.97
2023-01-30T14:28:56.158Z,2.00
2023-01-30T14:31:52.515Z,2.70
2023-01-30T14:34:46.112Z,2.20
2023-01-30T14:37:58.704Z,2.77
2023-01-30T14:41:01.377Z,2.80
2023-01-30T14:43:53.055Z,3.07
2023-01-30T14:46:54.398Z,2.47
2023-01-30T14:49:36.305Z,3.00
2023-01-30T14:52:06.857Z,2.60
2023-01-30T14:54:47.530Z,2.20
2023-01-30T14:57:22.454Z,2.17
2023-01-30T15:00:14.922Z,1.73
2023-01-30T15:02:53.146Z,2.40
2023-01-30T15:05:30.484Z,2.43
2023-01-30T15:08:06.438Z,2.53
2023-01-30T15:10:53.288Z,2.77
2023-01-30T15:13:44.017Z,3.30
2023-01-30T15:16:36.527Z,2.83
2023-01-30T15:19:20.613Z,2.53
2023-01-30T15:22:09.633Z,2.97
2023-01-30T15:25:17.599Z,2.67
2023-01-30T15:27:58.984Z,2.50
2023-01-30T15:30:46.683Z,3.17
2023-01-30T15:33:31.067Z,2.07
2023-01-30T15:36:02.401Z,3.30
2023-01-30T15:38:34.333Z,2.40
2023-01-30T15:41:06.685Z,2.57
2023-01-30T15:44:00.521Z,3.73
2023-01-30T15:46:40.980Z,3.17
2023-01-30T15:49:44.017Z,2.90
2023-01-30T15:52:18.563Z,2.77
2023-01-30T15:54:52.664Z,2.53
2023-01-30T15:57:29.427Z,3.00
2023-01-30T16:00:00.875Z,3.37
2023-01-30T16:02:34.171Z,3.03
2023-01-30T16:05:17.776Z,2.77
2023-01-30T16:07:48.867Z,3.13
2023-01-30T16:10:20.782Z,2.67
2023-01-30T16:12:54.689Z,2.50
2023-01-30T16:15:32.893Z,2.93
2023-01-30T16:18:07.323Z,2.77
2023-01-30T16:21:00.479Z,3.33
2023-01-30T16:23:34.643Z,3.87
2023-01-30T16:26:06.651Z,2.73
2023-01-30T16:28:36.787Z,3.43
2023-01-30T16:31:09.865Z,2.00
2023-01-30T16:33:40.490Z,2.80
2023-01-30T16:36:33.860Z,2.73
2023-01-30T16:39:03.805Z,2.43
2023-01-30T16:41:36.044Z,2.10
2023-01-30T16:44:21.689Z,2.73
2023-01-30T16:46:58.666Z,2.43
2023-01-30T16:49:45.630Z,2.83
2023-01-30T16:52:25.811Z,2.63
2023-01-30T16:54:57.480Z,2.30
2023-01-30T16:57:39.949Z,3.10
2023-01-30T17:00:22.965Z,2.77
2023-01-30T17:02:57.094Z,3.27
2023-01-30T17:05:29.424Z,2.77
2023-01-30T17:08:01.858Z,2.50
2023-01-30T17:10:57.585Z,3.60
2023-01-30T17:13:35.875Z,2.67
2023-01-30T17:16:25.522Z,2.60
2023-01-30T17:18:58.325Z,2.80
2023-01-30T17:21:33.285Z,2.80
2023-01-30T17:24:08.214Z,2.60
2023-01-30T17:26:40.930Z,2.43
2023-01-30T17:29:23.319Z,3.63
2023-01-30T17:32:02.370Z,2.93
2023-01-30T17:34:32.153Z,3.07
2023-01-30T17:37:01.887Z,3.67
2023-01-30T17:39:34.447Z,3.10
2023-01-30T17:42:04.354Z,3.07
2023-01-30T17:44:34.366Z,3.30
2023-01-30T17:47:04.241Z,2.53
2023-01-30T17:49:34.010Z,2.70
2023-01-30T17:52:04.331Z,4.10
2023-01-30T17:54:36.973Z,4.33
2023-01-30T17:57:09.854Z,3.33
2023-01-30T17:59:39.789Z,3.27
2023-01-30T18:02:12.196Z,3.63
2023-01-30T18:04:42.537Z,3.93
2023-01-30T18:07:18.579Z,6.47
2023-01-30T18:09:50.992Z,5.57
2023-01-30T18:12:21.102Z,5.57
2023-01-30T18:14:50.805Z,4.20
2023-01-30T18:17:21.438Z,3.67
2023-01-30T18:19:51.167Z,4.83
2023-01-30T18:22:20.987Z,3.60
2023-01-30T18:24:53.823Z,3.43
2023-01-30T18:27:23.552Z,4.10
2023-01-30T18:29:53.327Z,3.60
2023-01-30T18:32:23.203Z,3.90
2023-01-30T18:34:53.080Z,2.70
2023-01-30T18:37:23.140Z,3.40
2023-01-30T18:39:55.565Z,2.50
2023-01-30T18:42:25.586Z,3.00
2023-01-30T18:44:55.467Z,2.80
2023-01-30T18:47:25.276Z,3.37
2023-01-30T18:49:55.802Z,2.03
2023-01-30T18:52:25.970Z,2.33
2023-01-30T18:54:58.450Z,2.70
2023-01-30T18:57:28.345Z,3.80
2023-01-30T18:59:58.037Z,3.07
2023-01-30T19:02:27.915Z,2.13
2023-01-30T19:04:57.799Z,2.67
2023-01-30T19:07:27.761Z,2.67
2023-01-30T19:10:00.265Z,2.57
2023-01-30T19:12:42.598Z,3.03
2023-01-30T19:15:13.388Z,2.50
2023-01-30T19:17:43.239Z,2.63
2023-01-30T19:20:15.142Z,2.47
2023-01-30T19:22:44.920Z,2.67
2023-01-30T19:25:17.589Z,2.60
2023-01-30T19:27:47.512Z,2.60
2023-01-30T19:30:18.892Z,2.37
2023-01-30T19:32:48.999Z,2.93
2023-01-30T19:35:21.583Z,2.50
2023-01-30T19:37:55.230Z,2.60
2023-01-30T19:40:27.696Z,2.63
2023-01-30T19:43:05.704Z,2.90
2023-01-30T19:45:40.422Z,3.07
2023-01-30T19:48:11.804Z,2.53
2023-01-30T19:50:41.855Z,3.00
2023-01-30T19:53:12.025Z,2.00
2023-01-30T19:55:44.475Z,2.47
2023-01-30T19:58:14.484Z,2.80
2023-01-30T20:00:44.307Z,2.17
2023-01-30T20:03:16.409Z,1.90
2023-01-30T20:05:46.704Z,2.37
2023-01-30T20:08:31.684Z,2.50
2023-01-30T20:11:07.861Z,3.30
2023-01-30T20:13:38.096Z,2.00
2023-01-30T20:16:08.978Z,2.53
2023-01-30T20:18:40.189Z,2.80
2023-01-30T20:21:11.972Z,2.30
2023-01-30T20:23:42.948Z,2.60
2023-01-30T20:26:20.236Z,2.30
2023-01-30T20:28:50.543Z,1.93
2023-01-30T20:31:22.612Z,2.67
2023-01-30T20:33:55.814Z,2.43
2023-01-30T20:36:27.443Z,2.37
2023-01-30T20:39:01.929Z,2.93
2023-01-30T20:41:37.290Z,2.30
2023-01-30T20:44:08.819Z,2.20
2023-01-30T20:46:41.919Z,2.97
2023-01-30T20:49:15.849Z,1.97
2023-01-30T20:51:46.305Z,2.37
2023-01-30T20:54:17.860Z,2.53
2023-01-30T20:56:53.029Z,2.80
2023-01-30T20:59:25.048Z,2.20
2023-01-30T21:01:55.859Z,2.20
2023-01-30T21:04:27.033Z,2.20
2023-01-30T21:06:56.986Z,2.43
2023-01-30T21:09:27.461Z,2.77
2023-01-30T21:12:00.099Z,2.20
2023-01-30T21:14:30.077Z,2.70
2023-01-30T21:17:00.267Z,2.63
2023-01-30T21:19:30.266Z,2.43
2023-01-30T21:22:04.535Z,2.53
2023-01-30T21:24:34.370Z,2.70
2023-01-30T21:27:07.304Z,2.60
2023-01-30T21:29:37.227Z,2.43
2023-01-30T21:32:07.400Z,2.67
2023-01-30T21:34:37.918Z,2.93
2023-01-30T21:37:20.110Z,2.43
2023-01-30T21:40:02.289Z,1.83
2023-01-30T21:42:47.190Z,2.20
2023-01-30T21:45:17.749Z,2.93
2023-01-30T21:47:47.816Z,2.63
2023-01-30T21:50:18.209Z,2.90
2023-01-30T21:52:48.007Z,2.37
2023-01-30T21:55:18.281Z,3.53
2023-01-30T21:57:51.995Z,4.07
2023-01-30T22:00:22.444Z,4.43
2023-01-30T22:02:52.983Z,4.33
2023-01-30T22:05:23.091Z,3.50
2023-01-30T22:07:52.983Z,3.63
2023-01-30T22:10:22.778Z,3.33
2023-01-30T22:12:55.286Z,3.00
2023-01-30T22:15:26.240Z,3.60
2023-01-30T22:17:55.996Z,4.90
2023-01-30T22:20:25.749Z,3.57
2023-01-30T22:22:55.556Z,4.03
2023-01-30T22:25:25.318Z,3.93
2023-01-30T22:27:58.293Z,3.07
2023-01-30T22:30:28.025Z,3.57
2023-01-30T22:32:58.322Z,3.03
2023-01-30T22:35:28.350Z,2.83
2023-01-30T22:37:58.109Z,2.50
2023-01-30T22:40:27.878Z,2.30
2023-01-30T22:43:03.107Z,3.10
2023-01-30T22:45:32.849Z,3.13
2023-01-30T22:48:02.639Z,2.87
2023-01-30T22:50:32.504Z,2.60
2023-01-30T22:53:02.435Z,2.53
2023-01-30T22:55:32.145Z,2.47
2023-01-30T22:58:04.517Z,2.60
2023-01-30T23:00:34.453Z,2.33
2023-01-30T23:03:04.630Z,2.40
2023-01-30T23:05:34.490Z,2.37
2023-01-30T23:08:04.643Z,3.07
2023-01-30T23:10:34.594Z,3.13
2023-01-30T23:13:15.414Z,2.50
2023-01-30T23:15:47.115Z,2.77
2023-01-30T23:18:29.605Z,3.43
2023-01-30T23:20:59.479Z,3.13
2023-01-30T23:23:32.285Z,2.50
2023-01-30T23:26:05.066Z,2.87
2023-01-30T23:28:38.141Z,3.20
2023-01-30T23:31:09.563Z,3.53
2023-01-30T23:33:40.301Z,2.40
2023-01-30T23:36:12.399Z,2.47
2023-01-30T23:38:42.844Z,3.20
2023-01-30T23:41:15.188Z,3.17
2023-01-30T23:43:49.483Z,2.53
2023-01-30T23:46:22.119Z,2.90
2023-01-30T23:48:53.369Z,3.03
2023-01-30T23:51:24.906Z,3.27
2023-01-30T23:53:55.601Z,2.63
2023-01-30T23:56:26.607Z,2.80
2023-01-30T23:58:59.501Z,2.77
